La Palma > ESTACION METEOROLÓGICA Monte de Luna - Mazo

DATOS ACTUALES Online

Ultima actulizacion 11 minutos

14.8 ºC

Temperatura

93

Humedad (%)

1025.7

Presión (mb)

0

Precipitación (mm)

9.5 SSW

Viento (Km/h)

DATOS DIARIOS

Temperatura últimas 24 horas (ºC)

Humedad últimas 24 horas (%)

Presión atmosférica últimas 24 horas (mb)

Precipitaciones últimas 23 horas (mm)

Viento últimas 24 horas (Km/h)

Hora Temperatura (°C) ºC Precipitación (mm) mm Presión (mb) mb Humedad (%) % Viento (Km/h) km/h
28 - 11:00 17 0 1025 79 9.3 SSW
28 - 12:00 20.9 0 1025 63 9.5 ENE
28 - 13:00 21.9 0 1025 57 10.5 N
28 - 14:00 20.1 0 1025 76 8.9 WSW
28 - 15:00 18.4 0 1025 76 8.9 S
28 - 16:00 18.5 0 1025 77 10.8 SE
28 - 17:00 19.3 0 1024 73 11.7 SSW
28 - 18:00 16.7 0 1024 82 12.1 SSW
28 - 19:00 15.9 0 1024 91 11.4 S
28 - 20:00 14.9 0 1024 90 12.1 SW
28 - 21:00 15.2 0 1025 92 8.7 SSW
28 - 22:00 14.6 0 1025 96 11.3 S
28 - 23:00 14.4 0 1025 97 12.1 SSW
29 - 00:00 14.1 0 1025 98 10.6 S
29 - 01:00 14.2 0 1024 93 11.9 SW
29 - 02:00 14.7 0 1024 88 12.7 SSW
29 - 03:00 13.4 0 1024 100 12.1 SSW
29 - 04:00 15.1 0 1024 90 11.4 S
29 - 05:00 12.9 0 1023 100 12.6 SW
29 - 06:00 13.7 0 1024 87 15.3 ENE
29 - 07:00 13.9 0 1024 90 10.8 S
29 - 08:00 16.3 0 1024 81 9.5 WSW
29 - 09:00 17.7 0 1025 67 11.3 S
29 - 10:00 14.8 0 1025 94 9.3 ESE
29 - 11:00 14.8 0 1026 93 9.5 SSW
Apalmet utiliza cookies propias y de terceros para mejorar la usabilidad y la experiencia web. Política de cookies.